Santa Rosa, CA

7:11 PM PST on January 27, 2015 (GMT -0800)
Santa Rosa,Ca. | Change Station
CLOSE
Current Station
Personal Weather Station
Location: Santa Rosa, CA
Elevation: 105 ft
Nearby Weather Stations

Elev 105 ft 38.45 °N, 122.76 °W | Updated 2 seconds ago

Partly Cloudy
Partly Cloudy
58.8 °F
Feels Like 58.8 °F
N
0.0
Wind Variable Wind from SW
Gusts 0.0 mph

Today
High -- | Low -- °F
--% Chance of Precip.
Yesterday
High -- | Low -- °F
Precip. -- in
7:20 AM 5:27 PM
First Quarter, 60% visible
Pressure 30.20 in
Visibility 10.0 miles
Clouds Clear
Dew Point 52 °F
Humidity 78%
Rainfall 0.00 in
Snow Depth Not available.
UV 0.0 out of 12
Pollen 6.80 out of 12
Air Quality Not available.
Flu Activity Not available.
METAR KSTS 280253Z 30003KT 10SM CLR 13/11 A3022 RMK AO2 SLP225 T01330106 53007

More Conditions Fewer Conditions

Pressure 30.20 in
Visibility 10.0 miles
Clouds Clear
Dew Point 52 °F
Humidity 78%
Rainfall 0.00 in
Snow Depth Not available.
UV 0.0 out of 12
Pollen 6.80 out of 12
Air Quality Not available.
Flu Activity Not available.
METAR KSTS 280253Z 30003KT 10SM CLR 13/11 A3022 RMK AO2 SLP225 T01330106 53007

More Conditions Fewer Conditions

10-Day Weather Forecast

Almanac

Astronomy

Jan. 27, 2015 Rise Set
Actual Time
Civil Twilight
Nautical Twilight
Astronomical Twilight
Moon
Length of Visible Light
Length of Day
Tomorrow will be .
, % of the Moon is Illuminated

Today's Extremes

State Highs State Lows

Community

WunderPhotos

Upload Photos

1,791,067 photos uploaded!

WunderBlogs® & News

Nearby

Air Quality

  Air Quality AQ Index Pollutant
Not available.

Snow Depth

Station Depth Elevation

Earthquake Activity

City Distance Mag. Time & Date
Minimum magnitude displayed is 2.5.

Coastal Water Temperatures

Place Temperature

Nearby Weather Stations